Time;durP1;ratioP1;P1;durP2;ratioP2;P2;SDS_P1;SDS_P2;PMS_P1;PMS_P2;Temp;Humidity;BMP_temperature;BMP_pressure;BME280_temperature;BME280_humidity;BME280_pressure;Samples;Min_cycle;Max_cycle;Signal;HPM_P1;HPM_P2
2023/11/10 00:00:10;;;;;;;1.35;0.47;;;;;;;9.15;82.06;99077.13;7392815;19;20889;-62
2023/11/10 00:02:45;;;;;;;1.58;0.50;;;;;;;9.14;82.33;99080.81;7392112;19;20411;-62
2023/11/10 00:05:12;;;;;;;1.60;0.50;;;;;;;9.10;82.49;99099.94;7393309;19;20411;-62
2023/11/10 00:07:39;;;;;;;1.83;0.60;;;;;;;9.08;82.68;99099.31;7389650;19;20400;-61
2023/11/10 00:10:07;;;;;;;1.58;0.50;;;;;;;9.04;82.61;99092.81;7390527;19;20394;-62
2023/11/10 00:12:35;;;;;;;1.77;0.50;;;;;;;9.06;82.70;99088.13;7392670;19;20396;-61
2023/11/10 00:15:06;;;;;;;0.95;0.43;;;;;;;9.03;82.82;99080.59;7392290;19;20397;-62
2023/11/10 00:17:33;;;;;;;2.53;0.70;;;;;;;9.03;83.11;99093.81;7392878;19;20389;-61
2023/11/10 00:19:59;;;;;;;2.30;0.50;;;;;;;9.00;82.57;99086.31;7389814;19;20346;-62
2023/11/10 00:22:26;;;;;;;1.08;0.43;;;;;;;8.96;82.25;99091.97;7392367;19;20385;-61
2023/11/10 00:24:55;;;;;;;1.90;0.50;;;;;;;8.93;82.46;99095.06;7390718;19;20371;-60
2023/11/10 00:27:22;;;;;;;2.22;0.47;;;;;;;8.91;82.11;99096.28;7392401;19;20376;-61
2023/11/10 00:29:49;;;;;;;1.60;0.40;;;;;;;8.88;82.11;99094.84;7392425;19;20347;-60
2023/11/10 00:32:19;;;;;;;1.60;0.60;;;;;;;8.86;81.85;99104.81;7391085;19;20956;-61
2023/11/10 00:34:45;;;;;;;1.35;0.40;;;;;;;8.87;81.69;99101.16;7391683;19;20449;-60
2023/11/10 00:37:13;;;;;;;1.63;0.50;;;;;;;8.90;82.00;99105.22;7391439;19;20859;-60
2023/11/10 00:39:39;;;;;;;0.93;0.30;;;;;;;8.92;82.20;99103.19;7390555;19;20368;-60
2023/11/10 00:42:06;;;;;;;2.58;0.50;;;;;;;8.89;81.80;99107.06;7386471;19;20949;-61
2023/11/10 00:44:33;;;;;;;1.92;0.70;;;;;;;8.90;81.57;99105.22;7390484;19;20364;-61
2023/11/10 00:47:00;;;;;;;2.35;0.50;;;;;;;8.88;81.75;99102.78;7390144;19;20868;-61
2023/11/10 00:49:27;;;;;;;2.90;0.57;;;;;;;8.88;81.46;99108.09;7391584;19;20728;-62
2023/11/10 00:51:54;;;;;;;2.63;0.60;;;;;;;8.84;81.49;99096.28;7389773;19;20364;-60
2023/11/10 00:54:21;;;;;;;2.20;0.55;;;;;;;8.82;81.50;99105.41;7389209;19;20465;-61
2023/11/10 00:56:48;;;;;;;2.58;0.60;;;;;;;8.82;81.57;99102.75;7398374;19;20389;-62
2023/11/10 00:59:14;;;;;;;1.92;0.50;;;;;;;8.76;81.69;99099.94;7396732;19;20351;-60
2023/11/10 01:01:42;;;;;;;1.70;0.60;;;;;;;8.77;82.37;99090.16;7395206;19;20389;-61
2023/11/10 01:04:09;;;;;;;1.83;0.70;;;;;;;8.78;82.39;99075.94;7397332;19;20383;-61
2023/11/10 01:06:36;;;;;;;1.17;0.50;;;;;;;8.74;82.86;99080.00;7398049;19;20368;-60
2023/11/10 01:09:03;;;;;;;2.72;0.65;;;;;;;8.68;83.08;99084.25;7396069;19;20372;-60
2023/11/10 01:11:32;;;;;;;2.38;0.65;;;;;;;8.60;82.87;99095.00;7396893;19;20480;-60
2023/11/10 01:13:59;;;;;;;1.77;0.60;;;;;;;8.61;83.16;99093.19;7397906;19;20649;-58
2023/11/10 01:16:28;;;;;;;1.52;0.55;;;;;;;8.57;83.14;99101.53;7396875;19;20366;-60
2023/11/10 01:18:56;;;;;;;1.80;0.60;;;;;;;8.57;83.55;99101.53;7396689;19;20375;-60
2023/11/10 01:21:23;;;;;;;1.95;0.60;;;;;;;8.61;83.37;99101.09;7394275;19;20380;-61
2023/11/10 01:23:52;;;;;;;2.33;0.63;;;;;;;8.61;83.22;99095.81;7396529;19;20336;-59
2023/11/10 01:26:19;;;;;;;2.63;0.70;;;;;;;8.55;83.04;99092.97;7395606;19;20344;-60
2023/11/10 01:28:46;;;;;;;1.50;0.50;;;;;;;8.52;83.02;99098.69;7396178;19;20372;-60
2023/11/10 01:31:15;;;;;;;3.33;0.80;;;;;;;8.48;82.74;99089.53;7396716;19;20364;-61
2023/11/10 01:33:43;;;;;;;1.85;0.60;;;;;;;8.44;83.01;99080.38;7396725;19;20381;-59
2023/11/10 01:36:11;;;;;;;2.15;0.60;;;;;;;8.38;83.18;99086.41;7395840;19;20361;-56
2023/11/10 01:38:39;;;;;;;1.83;0.73;;;;;;;8.31;83.03;99088.25;7396726;19;20372;-62
2023/11/10 01:41:06;;;;;;;2.03;0.70;;;;;;;8.26;83.08;99090.66;7394356;19;21004;-59
2023/11/10 01:43:33;;;;;;;2.40;0.65;;;;;;;8.20;83.19;99089.59;7396423;19;20446;-62
2023/11/10 01:46:01;;;;;;;2.90;0.93;;;;;;;8.12;83.52;99082.69;7393528;19;20871;-60
2023/11/10 01:48:28;;;;;;;2.03;0.70;;;;;;;8.10;83.37;99087.38;7396026;19;20364;-61
2023/11/10 01:50:55;;;;;;;2.33;0.80;;;;;;;8.06;83.73;99095.88;7395386;19;20356;-60
2023/11/10 01:53:22;;;;;;;3.42;0.70;;;;;;;8.03;83.58;99090.97;7396146;19;20357;-58
2023/11/10 01:55:50;;;;;;;3.13;0.80;;;;;;;7.98;83.72;99081.03;7397287;19;20356;-60
2023/11/10 01:58:17;;;;;;;3.13;0.90;;;;;;;7.94;83.80;99090.34;7395846;19;20374;-58
2023/11/10 02:00:44;;;;;;;2.95;0.93;;;;;;;7.92;83.92;99092.38;7394575;19;20350;-59
2023/11/10 02:03:11;;;;;;;2.22;0.70;;;;;;;7.93;84.00;99094.81;7393287;19;20376;-58
2023/11/10 02:05:38;;;;;;;3.17;0.80;;;;;;;7.91;84.10;99096.84;7395132;19;20371;-59
2023/11/10 02:08:09;;;;;;;2.42;0.70;;;;;;;7.92;83.99;99102.94;7393740;19;20422;-59
2023/11/10 02:10:37;;;;;;;3.13;0.90;;;;;;;7.91;84.09;99110.03;7396475;19;20491;-60
2023/11/10 02:13:04;;;;;;;2.65;1.00;;;;;;;7.95;84.35;99099.91;7395688;19;20368;-60
2023/11/10 02:15:30;;;;;;;2.22;1.00;;;;;;;7.95;83.95;99095.44;7395027;19;20337;-60
2023/11/10 02:17:57;;;;;;;3.35;0.90;;;;;;;7.96;84.18;99094.41;7394784;19;20360;-59
2023/11/10 02:20:24;;;;;;;2.67;0.80;;;;;;;7.97;84.17;99084.69;7395636;19;20367;-59
2023/11/10 02:22:51;;;;;;;2.47;0.80;;;;;;;7.93;83.99;99078.16;7390475;19;20844;-59
2023/11/10 02:25:20;;;;;;;3.05;0.68;;;;;;;7.92;83.99;99076.53;7395867;19;20907;-61
2023/11/10 02:27:48;;;;;;;3.17;1.00;;;;;;;7.87;84.02;99073.69;7393493;19;20364;-59
2023/11/10 02:30:15;;;;;;;2.65;0.80;;;;;;;7.82;84.21;99076.06;7396621;19;20349;-60
2023/11/10 02:32:43;;;;;;;3.33;0.83;;;;;;;7.78;84.18;99059.00;7393940;19;20876;-59
2023/11/10 02:35:11;;;;;;;3.17;0.90;;;;;;;7.73;84.09;99057.75;7394363;19;20349;-60
2023/11/10 02:37:39;;;;;;;2.95;0.85;;;;;;;7.70;84.26;99052.88;7394518;19;20348;-60
2023/11/10 02:40:07;;;;;;;2.92;1.13;;;;;;;7.66;84.23;99056.13;7393755;19;20502;-60
2023/11/10 02:42:34;;;;;;;2.72;0.95;;;;;;;7.62;84.58;99055.69;7389758;19;20493;-57
2023/11/10 02:45:03;;;;;;;2.55;1.10;;;;;;;7.57;84.45;99054.66;7392961;19;20391;-60
2023/11/10 02:47:31;;;;;;;3.35;0.90;;;;;;;7.51;84.56;99050.97;7394266;19;20387;-59
2023/11/10 02:49:58;;;;;;;3.40;1.00;;;;;;;7.52;84.73;99060.50;7393585;19;20389;-60
2023/11/10 02:52:25;;;;;;;4.15;0.95;;;;;;;7.51;84.80;99059.69;7391420;19;20363;-58
2023/11/10 02:54:52;;;;;;;3.53;0.97;;;;;;;7.54;84.88;99055.84;7394901;19;20833;-58
2023/11/10 02:57:21;;;;;;;2.92;0.82;;;;;;;7.57;84.87;99055.47;7392704;19;20789;-60
2023/11/10 02:59:49;;;;;;;4.25;0.90;;;;;;;7.61;84.67;99058.50;7394020;19;20469;-60
2023/11/10 03:02:16;;;;;;;2.67;0.70;;;;;;;7.66;84.68;99056.94;7393457;19;20650;-60
2023/11/10 03:04:44;;;;;;;4.07;1.20;;;;;;;7.71;84.57;99053.69;7392828;19;20455;-59
2023/11/10 03:07:11;;;;;;;4.82;1.25;;;;;;;7.73;84.39;99052.47;7391396;19;20368;-58
2023/11/10 03:09:40;;;;;;;3.55;0.82;;;;;;;7.79;84.09;99055.38;7395260;19;20343;-60
2023/11/10 03:12:08;;;;;;;3.07;0.80;;;;;;;7.86;84.04;99061.47;7393984;19;20412;-59
2023/11/10 03:14:36;;;;;;;4.43;1.00;;;;;;;7.89;84.03;99056.63;7394259;19;20364;-59
2023/11/10 03:17:06;;;;;;;3.20;1.00;;;;;;;7.88;83.69;99043.59;7391765;19;20376;-60
2023/11/10 03:19:33;;;;;;;3.42;1.00;;;;;;;7.86;83.47;99035.06;7392933;19;20364;-61
2023/11/10 03:22:00;;;;;;;4.38;0.88;;;;;;;7.83;83.43;99038.94;7391749;19;20714;-61
2023/11/10 03:24:28;;;;;;;2.92;0.90;;;;;;;7.81;83.53;99042.78;7393613;19;20344;-61
2023/11/10 03:26:54;;;;;;;5.03;1.20;;;;;;;7.76;83.73;99035.47;7392510;19;20381;-60
2023/11/10 03:29:21;;;;;;;2.53;0.80;;;;;;;7.74;83.82;99033.00;7393675;19;20512;-60
2023/11/10 03:31:48;;;;;;;3.88;1.00;;;;;;;7.71;83.67;99036.06;7393998;19;20359;-60
2023/11/10 03:34:15;;;;;;;4.45;1.00;;;;;;;7.68;83.88;99040.91;7391174;19;20389;-61
2023/11/10 03:36:43;;;;;;;4.35;0.90;;;;;;;7.66;83.95;99046.38;7389949;19;20360;-61
2023/11/10 03:39:10;;;;;;;4.63;1.15;;;;;;;7.62;84.00;99033.78;7392311;19;20360;-61
2023/11/10 03:41:38;;;;;;;3.17;0.85;;;;;;;7.61;83.90;99035.59;7390394;19;20875;-61
2023/11/10 03:44:05;;;;;;;3.95;1.00;;;;;;;7.57;83.89;99044.91;7389662;19;20393;-61
2023/11/10 03:46:31;;;;;;;3.25;1.10;;;;;;;7.62;84.17;99045.13;7393104;19;20456;-61
2023/11/10 03:48:59;;;;;;;4.80;1.10;;;;;;;7.68;83.88;99054.09;7393485;19;20348;-58
2023/11/10 03:51:26;;;;;;;3.70;1.00;;;;;;;7.72;83.88;99055.34;7391656;19;20801;-61
2023/11/10 03:53:53;;;;;;;4.13;1.13;;;;;;;7.76;83.73;99052.09;7389860;19;20373;-59
2023/11/10 03:56:19;;;;;;;5.75;1.20;;;;;;;7.81;83.54;99048.88;7390622;19;20380;-57
2023/11/10 03:58:46;;;;;;;3.42;1.23;;;;;;;7.85;83.16;99046.66;7393325;19;20386;-62
2023/11/10 04:01:13;;;;;;;4.00;1.10;;;;;;;7.89;82.98;99050.53;7392848;19;20624;-59
2023/11/10 04:03:43;;;;;;;4.13;1.20;;;;;;;7.93;82.76;99057.03;7390889;19;20395;-61
2023/11/10 04:06:11;;;;;;;4.40;1.30;;;;;;;8.00;82.37;99046.50;7392805;19;20445;-59
2023/11/10 04:08:38;;;;;;;4.88;1.27;;;;;;;8.05;82.24;99055.44;7389411;19;20336;-58
2023/11/10 04:11:05;;;;;;;3.60;1.10;;;;;;;8.06;82.00;99057.09;7392775;19;20377;-59
2023/11/10 04:13:33;;;;;;;5.05;1.30;;;;;;;8.09;81.82;99061.94;7392441;19;20364;-60
2023/11/10 04:16:00;;;;;;;3.90;1.00;;;;;;;8.11;81.88;99044.06;7390477;19;20379;-60
2023/11/10 04:18:27;;;;;;;4.57;1.08;;;;;;;8.13;81.70;99047.34;7392151;19;20364;-61
2023/11/10 04:20:55;;;;;;;4.47;0.98;;;;;;;8.14;81.69;99038.41;7389805;19;20368;-59
2023/11/10 04:23:22;;;;;;;5.40;0.98;;;;;;;8.15;81.64;99040.03;7388674;19;20377;-61
2023/11/10 04:25:49;;;;;;;3.88;1.15;;;;;;;8.20;81.52;99035.97;7389161;19;20352;-60
2023/11/10 04:28:16;;;;;;;2.73;1.00;;;;;;;8.22;81.79;99037.41;7392036;19;20393;-61
2023/11/10 04:30:44;;;;;;;4.30;1.10;;;;;;;8.24;81.68;99031.91;7396388;19;20389;-58
2023/11/10 04:33:11;;;;;;;3.45;1.05;;;;;;;8.22;81.90;99023.38;7399098;19;20375;-60
2023/11/10 04:35:38;;;;;;;4.47;1.10;;;;;;;8.16;82.03;99020.53;7388068;19;20344;-60
2023/11/10 04:38:08;;;;;;;3.70;1.10;;;;;;;8.16;81.79;99019.72;7396973;19;20356;-59
2023/11/10 04:40:36;;;;;;;5.00;1.33;;;;;;;8.17;81.71;99016.06;7399007;19;20538;-60
2023/11/10 04:43:05;;;;;;;4.03;1.30;;;;;;;8.12;81.64;99010.59;7396916;19;20360;-60
2023/11/10 04:45:32;;;;;;;5.40;1.30;;;;;;;8.10;81.69;99005.50;7398232;19;20714;-60
2023/11/10 04:47:59;;;;;;;4.47;1.27;;;;;;;8.08;81.85;99012.00;7398045;19;20373;-58
2023/11/10 04:50:26;;;;;;;3.10;1.10;;;;;;;8.01;81.95;99006.69;7398478;19;20371;-61
2023/11/10 04:52:53;;;;;;;5.07;1.23;;;;;;;7.98;82.03;99012.38;7398859;19;20416;-58
2023/11/10 04:55:21;;;;;;;4.43;1.17;;;;;;;7.95;82.11;99010.94;7399029;19;20360;-61
2023/11/10 04:57:47;;;;;;;3.38;1.27;;;;;;;7.94;82.46;99021.69;7398271;19;20368;-57
2023/11/10 05:00:16;;;;;;;3.80;1.13;;;;;;;7.94;82.55;99022.50;7397018;19;20437;-60
2023/11/10 05:02:44;;;;;;;3.40;1.13;;;;;;;7.97;82.58;99019.47;7397175;19;20503;-60
2023/11/10 05:05:14;;;;;;;4.95;1.35;;;;;;;7.99;82.65;99029.84;7396146;19;20392;-59
2023/11/10 05:07:42;;;;;;;4.63;1.50;;;;;;;8.02;82.72;99029.44;7397904;19;20360;-59
2023/11/10 05:10:10;;;;;;;4.00;1.10;;;;;;;8.03;82.89;99031.06;7396756;19;20416;-59
2023/11/10 05:12:37;;;;;;;5.60;1.33;;;;;;;8.04;82.73;99032.69;7396782;19;20351;-59
2023/11/10 05:15:06;;;;;;;4.65;1.30;;;;;;;8.05;82.78;99034.31;7398433;19;20349;-61
2023/11/10 05:17:44;;;;;;;4.43;1.30;;;;;;;8.03;82.77;99025.78;7396503;19;20520;-59
2023/11/10 05:20:12;;;;;;;4.90;1.30;;;;;;;7.96;82.93;99017.84;7396350;19;20451;-61
2023/11/10 05:22:40;;;;;;;4.35;1.17;;;;;;;7.92;83.08;99016.59;7393972;19;20774;-61
2023/11/10 05:25:10;;;;;;;4.05;1.25;;;;;;;7.79;83.75;99013.13;7397566;19;20456;-55
2023/11/10 05:27:38;;;;;;;3.50;1.20;;;;;;;7.74;83.68;99011.09;7394680;19;20371;-60
2023/11/10 05:30:06;;;;;;;4.75;1.20;;;;;;;7.66;84.17;99012.06;7397263;19;20440;-59
2023/11/10 05:32:33;;;;;;;3.87;1.10;;;;;;;7.63;84.15;99009.00;7400192;19;20344;-57
2023/11/10 05:35:00;;;;;;;4.22;1.10;;;;;;;7.54;84.99;99005.72;7398847;19;20362;-60
2023/11/10 05:37:28;;;;;;;4.13;1.25;;;;;;;7.50;84.99;99007.13;7398523;19;20361;-61
2023/11/10 05:39:54;;;;;;;5.88;1.20;;;;;;;7.47;85.34;99010.16;7398348;19;20368;-60
2023/11/10 05:42:22;;;;;;;2.47;1.00;;;;;;;7.43;85.59;99014.19;7396812;19;20400;-61
2023/11/10 05:44:50;;;;;;;4.38;1.13;;;;;;;7.41;86.05;99008.31;7398920;19;20352;-60
2023/11/10 05:47:17;;;;;;;4.63;1.10;;;;;;;7.41;86.07;99005.66;7397662;19;20383;-60
2023/11/10 05:49:44;;;;;;;2.83;1.10;;;;;;;7.41;86.21;99001.19;7396263;19;20383;-61
2023/11/10 05:52:14;;;;;;;3.72;1.05;;;;;;;7.40;86.51;99010.13;7395322;19;20348;-62
2023/11/10 05:54:41;;;;;;;3.70;1.17;;;;;;;7.38;86.56;99006.06;7397928;19;20368;-58
2023/11/10 05:57:08;;;;;;;4.13;1.17;;;;;;;7.34;86.72;99006.44;7392656;19;20360;-58
2023/11/10 05:59:35;;;;;;;3.47;1.13;;;;;;;7.31;86.63;99012.13;7395627;19;21025;-60
2023/11/10 06:02:02;;;;;;;2.55;0.90;;;;;;;7.27;86.85;99010.88;7394791;19;20427;-59
2023/11/10 06:04:30;;;;;;;3.05;1.00;;;;;;;7.26;86.90;99025.06;7399103;19;20352;-59
2023/11/10 06:07:02;;;;;;;2.95;0.93;;;;;;;7.21;87.18;99026.66;7391911;19;20382;-61
2023/11/10 06:09:33;;;;;;;3.60;0.88;;;;;;;7.20;87.48;99019.75;7397404;19;20712;-60
2023/11/10 06:12:00;;;;;;;5.07;1.20;;;;;;;7.17;87.55;99028.88;7396086;19;20496;-60
2023/11/10 06:14:28;;;;;;;2.55;1.00;;;;;;;7.11;87.96;99027.00;7398982;19;20360;-59
2023/11/10 06:16:56;;;;;;;4.82;1.20;;;;;;;7.06;88.18;99024.94;7393213;19;20404;-56
2023/11/10 06:19:23;;;;;;;3.42;1.20;;;;;;;7.04;88.35;99019.06;7396638;19;20800;-58
2023/11/10 06:21:50;;;;;;;4.00;1.17;;;;;;;7.02;88.86;99020.25;7397442;19;20448;-60
2023/11/10 06:24:19;;;;;;;4.10;1.10;;;;;;;7.01;88.82;99023.88;7397172;19;20368;-60
2023/11/10 06:26:47;;;;;;;4.00;1.20;;;;;;;7.01;89.27;99021.25;7394787;19;20832;-60
2023/11/10 06:29:14;;;;;;;2.95;1.10;;;;;;;7.00;89.16;99022.28;7396468;19;20784;-56
2023/11/10 06:31:41;;;;;;;5.10;1.20;;;;;;;6.98;89.69;99027.72;7396563;19;20828;-59
2023/11/10 06:34:08;;;;;;;2.65;1.08;;;;;;;6.97;89.89;99025.28;7397069;19;20360;-59
2023/11/10 06:36:35;;;;;;;3.47;1.45;;;;;;;6.99;89.86;99028.53;7394352;19;20693;-59
2023/11/10 06:39:02;;;;;;;3.47;1.17;;;;;;;7.01;90.14;99026.53;7396037;19;20396;-59
2023/11/10 06:41:29;;;;;;;3.38;1.10;;;;;;;7.05;90.02;99033.03;7395562;19;20686;-59
2023/11/10 06:43:56;;;;;;;3.20;1.10;;;;;;;7.04;89.94;99029.59;7395119;19;20714;-60
2023/11/10 06:46:23;;;;;;;2.85;1.20;;;;;;;7.09;89.81;99034.28;7395797;19;20913;-60
2023/11/10 06:48:51;;;;;;;3.00;1.20;;;;;;;7.10;89.96;99041.22;7396192;19;20820;-61
2023/11/10 06:51:19;;;;;;;3.08;1.00;;;;;;;7.10;89.95;99043.84;7394988;19;20956;-59
2023/11/10 06:53:46;;;;;;;3.83;1.20;;;;;;;7.12;89.98;99036.56;7393708;19;20423;-61
2023/11/10 06:56:14;;;;;;;5.78;1.20;;;;;;;7.14;89.68;99031.91;7395245;19;20368;-61
2023/11/10 06:58:40;;;;;;;2.65;1.08;;;;;;;7.17;89.70;99038.63;7395652;19;20381;-62
2023/11/10 07:01:08;;;;;;;3.05;1.00;;;;;;;7.17;89.48;99042.06;7395999;19;20360;-61
2023/11/10 07:03:36;;;;;;;4.50;1.10;;;;;;;7.18;89.63;99043.66;7390292;19;20421;-61
2023/11/10 07:06:04;;;;;;;4.68;1.10;;;;;;;7.18;89.46;99048.13;7391604;19;20344;-61
2023/11/10 07:08:32;;;;;;;3.63;1.08;;;;;;;7.21;89.39;99051.22;7391736;19;20344;-62
2023/11/10 07:11:01;;;;;;;4.25;1.00;;;;;;;7.25;89.34;99052.47;7393820;19;20368;-62
2023/11/10 07:13:31;;;;;;;3.40;1.20;;;;;;;7.35;89.29;99057.38;7393366;19;20373;-61
2023/11/10 07:15:57;;;;;;;3.80;1.20;;;;;;;7.42;89.18;99060.06;7389445;19;20374;-62
2023/11/10 07:18:30;;;;;;;3.05;1.08;;;;;;;7.49;88.68;99058.28;7394003;19;20375;-63
2023/11/10 07:20:58;;;;;;;2.70;1.17;;;;;;;7.58;88.29;99053.63;7394311;19;20369;-62
2023/11/10 07:23:24;;;;;;;3.75;1.17;;;;;;;7.63;87.94;99062.63;7388242;19;20420;-62
2023/11/10 07:25:52;;;;;;;3.17;1.10;;;;;;;7.69;87.73;99061.00;7394241;19;20376;-62
2023/11/10 07:28:19;;;;;;;2.30;0.97;;;;;;;7.75;87.52;99061.00;7395735;19;20832;-62
2023/11/10 07:30:46;;;;;;;2.58;1.20;;;;;;;7.83;87.24;99056.59;7394051;19;20704;-63
2023/11/10 07:33:12;;;;;;;2.50;0.98;;;;;;;7.90;86.97;99060.06;7392877;19;20397;-63
2023/11/10 07:35:39;;;;;;;3.55;0.82;;;;;;;7.94;86.48;99064.75;7395439;19;20369;-62
2023/11/10 07:38:06;;;;;;;3.35;1.00;;;;;;;8.02;86.26;99055.84;7395035;19;20348;-60
2023/11/10 07:40:33;;;;;;;3.60;1.00;;;;;;;8.09;85.95;99067.22;7391018;19;20377;-62
2023/11/10 07:43:00;;;;;;;2.38;0.93;;;;;;;8.16;85.90;99062.81;7393670;19;20374;-62
2023/11/10 07:45:28;;;;;;;2.83;0.90;;;;;;;8.24;85.57;99068.91;7392749;19;20332;-60
2023/11/10 07:47:56;;;;;;;3.08;0.98;;;;;;;8.28;85.47;99065.66;7394016;19;20340;-60
2023/11/10 07:50:24;;;;;;;3.10;1.00;;;;;;;8.38;85.15;99060.00;7391018;19;20447;-60
2023/11/10 07:52:51;;;;;;;2.85;1.10;;;;;;;8.46;85.38;99067.78;7392953;19;20693;-61
2023/11/10 07:55:18;;;;;;;3.53;1.10;;;;;;;8.54;85.23;99064.94;7390844;19;20716;-60
2023/11/10 07:57:45;;;;;;;3.28;1.08;;;;;;;8.61;84.88;99069.41;7391190;19;20357;-61
2023/11/10 08:00:18;;;;;;;2.38;1.00;;;;;;;8.64;84.69;99069.00;7392948;19;20442;-61
2023/11/10 08:02:51;;;;;;;3.63;1.10;;;;;;;8.67;84.71;99076.50;7391969;19;20372;-61
2023/11/10 08:05:20;;;;;;;3.53;1.02;;;;;;;8.68;84.60;99078.16;7393863;19;21061;-61
2023/11/10 08:07:52;;;;;;;4.60;2.00;;;;;;;8.69;84.64;99071.84;7391466;19;20724;-61
2023/11/10 08:10:20;;;;;;;4.05;1.20;;;;;;;8.71;84.49;99075.09;7392302;19;20360;-61
2023/11/10 08:12:47;;;;;;;3.33;1.10;;;;;;;8.72;84.75;99072.25;7393432;19;20377;-61
2023/11/10 08:15:14;;;;;;;4.33;1.10;;;;;;;8.75;84.73;99071.03;7394467;19;20423;-61
2023/11/10 08:17:41;;;;;;;5.78;2.70;;;;;;;8.78;84.88;99075.94;7391764;19;20356;-61
2023/11/10 08:20:09;;;;;;;4.03;1.77;;;;;;;8.81;84.56;99082.63;7390532;19;20710;-61
2023/11/10 08:22:37;;;;;;;3.97;1.25;;;;;;;8.83;84.59;99088.53;7393125;19;21013;-62
2023/11/10 08:25:05;;;;;;;5.50;2.85;;;;;;;8.88;84.11;99094.03;7392630;19;20683;-61
2023/11/10 08:27:33;;;;;;;3.42;1.17;;;;;;;8.89;84.21;99096.47;7392304;19;20882;-61
2023/11/10 08:30:00;;;;;;;4.07;1.55;;;;;;;8.96;84.54;99091.19;7390700;19;20362;-62
2023/11/10 08:32:28;;;;;;;2.55;1.10;;;;;;;8.98;84.30;99095.25;7391709;19;20883;-61
2023/11/10 08:34:56;;;;;;;4.20;1.10;;;;;;;8.98;84.04;99097.88;7392170;19;20696;-60
2023/11/10 08:37:24;;;;;;;2.30;0.80;;;;;;;8.98;83.56;99095.25;7392748;19;20882;-62
2023/11/10 08:39:51;;;;;;;4.20;1.00;;;;;;;9.05;83.65;99102.38;7391466;19;20466;-60
2023/11/10 08:42:18;;;;;;;3.22;1.10;;;;;;;9.11;83.81;99106.84;7382680;19;20438;-61
2023/11/10 08:44:46;;;;;;;3.40;1.00;;;;;;;9.17;83.73;99111.31;7391264;19;20916;-60
2023/11/10 08:47:14;;;;;;;2.70;0.93;;;;;;;9.24;83.91;99113.94;7392774;19;20893;-62
2023/11/10 08:49:45;;;;;;;3.30;1.13;;;;;;;9.30;84.12;99111.28;7392056;19;20381;-61
2023/11/10 08:52:14;;;;;;;2.17;1.00;;;;;;;9.37;84.53;99112.13;7391109;19;20373;-62
2023/11/10 08:54:41;;;;;;;3.45;1.15;;;;;;;9.40;84.33;99110.88;7389777;19;20440;-62
2023/11/10 08:57:08;;;;;;;5.00;0.90;;;;;;;9.45;84.25;99110.25;7387720;19;20376;-62
2023/11/10 08:59:35;;;;;;;3.72;1.02;;;;;;;9.49;84.39;99104.34;7390504;19;20968;-63
2023/11/10 09:02:02;;;;;;;3.75;1.05;;;;;;;9.53;84.24;99110.06;7386567;19;20357;-63
2023/11/10 09:04:29;;;;;;;2.80;0.97;;;;;;;9.51;84.27;99106.78;7386852;19;20373;-63
2023/11/10 09:06:56;;;;;;;2.25;0.88;;;;;;;9.54;84.48;99101.06;7391031;19;20372;-62
2023/11/10 09:09:23;;;;;;;3.55;1.00;;;;;;;9.58;84.31;99104.94;7389899;19;20387;-63
2023/11/10 09:11:50;;;;;;;2.58;0.90;;;;;;;9.68;84.20;99097.38;7386138;19;20445;-63
2023/11/10 09:14:17;;;;;;;4.00;1.33;;;;;;;9.73;84.23;99100.22;7380001;19;20391;-63
2023/11/10 09:16:44;;;;;;;9.60;5.72;;;;;;;9.73;83.35;99107.34;7384925;19;20923;-63
2023/11/10 09:19:11;;;;;;;3.85;1.25;;;;;;;9.74;83.43;99096.56;7389925;19;20758;-63
2023/11/10 09:21:38;;;;;;;3.70;1.00;;;;;;;9.75;82.84;99102.66;7390372;19;20373;-63
2023/11/10 09:24:07;;;;;;;2.95;1.00;;;;;;;9.77;82.54;99105.91;7391590;19;20435;-63
2023/11/10 09:26:34;;;;;;;2.33;0.80;;;;;;;9.75;82.76;99108.78;7392419;19;20352;-63
2023/11/10 09:29:01;;;;;;;3.70;0.90;;;;;;;9.75;82.28;99108.78;7397120;19;20337;-63
2023/11/10 09:31:28;;;;;;;4.60;1.00;;;;;;;9.77;82.10;99113.84;7397680;19;20360;-62
2023/11/10 09:33:55;;;;;;;3.25;1.10;;;;;;;9.72;81.02;99111.03;7398267;19;20372;-63
2023/11/10 09:36:24;;;;;;;2.80;1.05;;;;;;;9.76;81.43;99110.41;7390849;19;20503;-63
2023/11/10 09:38:52;;;;;;;3.20;1.00;;;;;;;9.75;80.45;99127.31;7392942;19;20461;-63
2023/11/10 09:41:25;;;;;;;3.03;0.90;;;;;;;9.76;79.99;99110.41;7394786;19;20381;-63
2023/11/10 09:43:53;;;;;;;2.40;0.68;;;;;;;9.73;79.84;99129.38;7393612;19;20403;-63
2023/11/10 09:46:21;;;;;;;3.17;0.90;;;;;;;9.77;80.15;99125.25;7392938;19;20403;-63
2023/11/10 09:48:49;;;;;;;3.80;0.80;;;;;;;9.76;80.70;99114.88;7392684;19;20373;-64
2023/11/10 09:51:19;;;;;;;2.67;0.93;;;;;;;9.75;80.07;99119.38;7396162;19;20414;-63
2023/11/10 09:53:48;;;;;;;3.67;0.88;;;;;;;9.76;79.95;99120.19;7395167;19;20720;-63
2023/11/10 09:56:16;;;;;;;3.00;0.98;;;;;;;9.81;79.50;99120.34;7394173;19;20899;-64
2023/11/10 09:58:43;;;;;;;3.03;0.90;;;;;;;9.85;79.66;99121.56;7394834;19;20357;-64
2023/11/10 10:01:10;;;;;;;2.67;0.98;;;;;;;9.86;79.50;99125.84;7393635;19;20888;-63
2023/11/10 10:03:37;;;;;;;3.47;0.98;;;;;;;9.90;79.56;99123.59;7388640;19;20369;-62
2023/11/10 10:06:06;;;;;;;3.47;0.90;;;;;;;9.92;79.43;99125.00;7390738;19;20408;-61
2023/11/10 10:08:34;;;;;;;4.55;1.00;;;;;;;9.96;79.54;99120.09;7389464;19;20389;-63
2023/11/10 10:11:02;;;;;;;4.15;0.98;;;;;;;9.95;79.14;99134.38;7394522;19;20352;-63
2023/11/10 10:13:30;;;;;;;2.83;1.00;;;;;;;9.89;78.57;99130.72;7395174;19;20411;-62
2023/11/10 10:16:07;;;;;;;2.90;1.10;;;;;;;9.89;79.01;99120.13;7392553;19;20349;-62
2023/11/10 10:18:34;;;;;;;3.58;1.10;;;;;;;9.89;79.31;99121.97;7395882;19;20365;-63
2023/11/10 10:21:01;;;;;;;2.60;0.90;;;;;;;9.87;79.23;99126.66;7394591;19;20365;-63
2023/11/10 10:23:27;;;;;;;2.22;0.90;;;;;;;9.82;79.41;99129.94;7395094;19;20363;-63
2023/11/10 10:25:55;;;;;;;1.80;0.80;;;;;;;9.82;79.84;99121.16;7392208;19;20768;-62
2023/11/10 10:28:24;;;;;;;3.40;1.20;;;;;;;9.74;80.10;99130.97;7394471;19;20364;-63
2023/11/10 10:30:51;;;;;;;3.80;1.85;;;;;;;9.76;80.03;99130.78;7396195;19;20357;-63
2023/11/10 10:33:18;;;;;;;2.72;1.17;;;;;;;9.76;80.02;99128.94;7397255;19;20438;-63
2023/11/10 10:35:45;;;;;;;2.97;1.13;;;;;;;9.82;80.10;99129.09;7395949;19;20357;-62
2023/11/10 10:38:17;;;;;;;2.63;0.90;;;;;;;9.83;80.01;99125.47;7391890;19;20414;-63
2023/11/10 10:40:44;;;;;;;3.15;1.10;;;;;;;9.84;80.26;99121.78;7396290;19;20401;-61
2023/11/10 10:43:13;;;;;;;3.15;1.27;;;;;;;9.80;79.78;99116.91;7391889;19;20371;-62
2023/11/10 10:45:41;;;;;;;3.00;1.10;;;;;;;9.86;79.85;99114.44;7394141;19;20379;-63
2023/11/10 10:48:11;;;;;;;2.60;1.00;;;;;;;9.95;80.17;99116.66;7396007;19;20945;-62
2023/11/10 10:50:39;;;;;;;4.20;1.10;;;;;;;10.01;79.67;99101.75;7395333;19;20393;-62
2023/11/10 10:53:09;;;;;;;4.70;1.20;;;;;;;10.13;79.64;99094.75;7395765;19;20435;-61
2023/11/10 10:55:38;;;;;;;3.45;1.00;;;;;;;10.26;78.86;99099.19;7395912;19;20462;-63
2023/11/10 10:58:06;;;;;;;3.85;1.02;;;;;;;10.39;78.89;99098.31;7394874;19;20419;-63
2023/11/10 11:00:33;;;;;;;3.25;1.05;;;;;;;10.44;77.85;99101.16;7396276;19;20349;-62
2023/11/10 11:03:42;;;;;;;3.15;1.13;;;;;;;10.50;76.95;99080.94;7395098;19;20705;-62
2023/11/10 11:06:38;;;;;;;3.50;1.30;;;;;;;10.58;76.90;99094.75;7394347;19;20348;-62
2023/11/10 11:09:26;;;;;;;3.60;1.00;;;;;;;10.71;75.87;99090.38;7394118;19;20372;-63
2023/11/10 11:12:10;;;;;;;2.50;0.90;;;;;;;10.79;75.47;99082.16;7396952;19;20385;-62
2023/11/10 11:15:00;;;;;;;2.58;1.10;;;;;;;10.95;73.96;99091.44;7397723;19;20368;-62
2023/11/10 11:18:05;;;;;;;3.03;1.20;;;;;;;11.06;74.33;99090.72;7395700;19;20385;-63
2023/11/10 11:20:34;;;;;;;2.90;1.20;;;;;;;10.98;73.64;99097.09;7396263;19;20463;-63
2023/11/10 11:23:04;;;;;;;2.85;1.10;;;;;;;10.95;73.83;99089.56;7396455;19;20360;-63
2023/11/10 11:25:32;;;;;;;2.93;1.10;;;;;;;11.06;74.34;99092.56;7393271;19;20452;-62
2023/11/10 11:27:59;;;;;;;2.80;0.90;;;;;;;11.36;73.54;99084.72;7394628;19;20351;-62
2023/11/10 11:30:37;;;;;;;2.90;1.00;;;;;;;11.53;72.08;99085.75;7394924;19;20376;-62
2023/11/10 11:33:11;;;;;;;2.47;0.98;;;;;;;11.50;71.61;99082.75;7393779;19;20845;-63
2023/11/10 11:35:46;;;;;;;3.08;1.00;;;;;;;11.61;71.30;99087.31;7394803;19;20423;-63
2023/11/10 11:38:25;;;;;;;2.53;1.05;;;;;;;11.75;71.04;99080.84;7393930;19;20371;-61
2023/11/10 11:40:57;;;;;;;2.75;1.00;;;;;;;12.01;70.04;99074.41;7395449;19;20455;-62
2023/11/10 11:43:24;;;;;;;3.60;1.00;;;;;;;12.21;69.34;99087.44;7393442;19;20696;-61
2023/11/10 11:45:55;;;;;;;2.70;1.10;;;;;;;12.13;66.91;99077.09;7391470;19;20336;-62